Time;durP1;ratioP1;P1;durP2;ratioP2;P2;SDS_P1;SDS_P2;PMS_P1;PMS_P2;Temp;Humidity;BMP_temperature;BMP_pressure;BME280_temperature;BME280_humidity;BME280_pressure;Samples;Min_cycle;Max_cycle;Signal;HPM_P1;HPM_P2
2023/07/19 00:00:35;;;;;;;3.55;1.58;;;;;;;24.24;40.27;101142.44;5051694;28;20108;-61
2023/07/19 00:03:01;;;;;;;3.90;2.08;;;;;;;24.21;40.46;101148.31;5044080;28;20021;-62
2023/07/19 00:05:27;;;;;;;4.88;2.22;;;;;;;24.17;40.82;101141.59;5052717;28;20057;-61
2023/07/19 00:07:52;;;;;;;9.02;1.63;;;;;;;24.15;41.23;101153.78;5052665;28;20028;-61
2023/07/19 00:10:18;;;;;;;1.83;1.58;;;;;;;24.09;40.88;101140.94;5051144;28;20040;-61
2023/07/19 00:12:43;;;;;;;3.75;1.40;;;;;;;24.07;41.00;101140.28;5051291;28;20060;-61
2023/07/19 00:15:08;;;;;;;2.85;1.75;;;;;;;23.99;41.36;101133.13;5051200;28;20040;-61
2023/07/19 00:17:34;;;;;;;4.88;2.22;;;;;;;23.97;41.16;101139.84;5052488;28;20033;-61
2023/07/19 00:19:59;;;;;;;5.55;2.58;;;;;;;23.94;40.97;101140.28;5051637;28;20053;-60
2023/07/19 00:22:25;;;;;;;4.35;2.55;;;;;;;23.90;41.23;101136.28;5051340;28;20430;-62
2023/07/19 00:24:50;;;;;;;4.18;2.25;;;;;;;23.86;41.49;101135.00;5051455;28;20116;-61
2023/07/19 00:27:16;;;;;;;5.82;2.67;;;;;;;23.84;41.08;101127.03;5052425;28;20044;-62
2023/07/19 00:29:41;;;;;;;4.75;1.75;;;;;;;23.80;41.52;101116.69;5051157;28;20075;-61
2023/07/19 00:32:07;;;;;;;4.55;1.88;;;;;;;23.77;41.02;101123.41;5034560;28;20040;-61
2023/07/19 00:34:32;;;;;;;5.15;1.90;;;;;;;23.75;42.03;101120.91;5050719;28;20544;-61
2023/07/19 00:36:59;;;;;;;2.95;1.70;;;;;;;23.70;41.35;101123.38;5051120;28;20109;-62
2023/07/19 00:39:24;;;;;;;5.35;2.10;;;;;;;23.70;41.82;101122.56;5051558;28;20033;-63
2023/07/19 00:41:50;;;;;;;7.80;2.40;;;;;;;23.70;41.97;101128.88;5052313;28;20031;-63
2023/07/19 00:44:15;;;;;;;4.03;1.75;;;;;;;23.67;41.75;101112.03;5052535;28;20578;-63
2023/07/19 00:46:41;;;;;;;7.20;2.00;;;;;;;23.69;42.11;101121.72;5052154;28;20491;-62
2023/07/19 00:49:07;;;;;;;3.42;1.77;;;;;;;23.63;41.77;101117.06;5050833;28;20555;-62
2023/07/19 00:51:33;;;;;;;3.95;1.60;;;;;;;23.63;42.19;101124.44;5024991;28;20072;-62
2023/07/19 00:53:58;;;;;;;6.03;2.50;;;;;;;23.63;41.62;101127.16;5041491;28;20025;-63
2023/07/19 00:56:23;;;;;;;4.35;2.20;;;;;;;23.61;42.50;101130.13;5055895;28;20036;-63
2023/07/19 00:58:50;;;;;;;3.78;1.80;;;;;;;23.58;42.19;101130.53;5054545;28;20055;-62
2023/07/19 01:01:16;;;;;;;4.13;2.15;;;;;;;23.57;42.36;101126.09;5037160;28;20025;-62
2023/07/19 01:03:41;;;;;;;3.72;2.13;;;;;;;23.56;42.11;101124.41;5056443;28;20033;-63
2023/07/19 01:06:07;;;;;;;7.03;2.35;;;;;;;23.53;42.57;101127.59;5055677;28;20027;-62
2023/07/19 01:08:32;;;;;;;2.67;1.85;;;;;;;23.52;42.26;101125.88;5054594;28;20036;-62
2023/07/19 01:10:59;;;;;;;3.22;2.13;;;;;;;23.49;42.43;101128.19;5054342;28;20064;-63
2023/07/19 01:13:24;;;;;;;4.40;2.50;;;;;;;23.49;41.96;101131.75;5054396;28;20071;-62
2023/07/19 01:15:50;;;;;;;8.85;2.30;;;;;;;23.45;42.05;101130.47;5037515;28;20429;-62
2023/07/19 01:18:17;;;;;;;7.45;2.67;;;;;;;23.44;41.95;101126.06;5055622;28;20032;-62
2023/07/19 01:20:43;;;;;;;6.00;1.80;;;;;;;23.43;42.34;101127.13;5055525;28;20064;-62
2023/07/19 01:23:08;;;;;;;3.85;2.00;;;;;;;23.41;41.98;101118.28;5056114;28;20061;-63
2023/07/19 01:25:33;;;;;;;3.97;2.13;;;;;;;23.40;43.03;101122.06;5054375;28;20029;-62
2023/07/19 01:28:00;;;;;;;6.35;3.65;;;;;;;23.38;43.06;101120.56;5054002;28;20041;-62
2023/07/19 01:30:25;;;;;;;3.38;1.88;;;;;;;23.37;42.46;101118.84;5055161;28;20116;-63
2023/07/19 01:32:51;;;;;;;4.00;2.13;;;;;;;23.36;42.36;101120.75;5053665;28;20124;-63
2023/07/19 01:35:17;;;;;;;4.80;2.72;;;;;;;23.37;43.07;101116.97;5053584;28;20409;-61
2023/07/19 01:37:43;;;;;;;3.60;2.05;;;;;;;23.35;42.60;101118.22;5053875;28;20067;-61
2023/07/19 01:40:11;;;;;;;4.28;2.40;;;;;;;23.30;42.44;101109.78;5055287;28;20029;-61
2023/07/19 01:42:36;;;;;;;2.90;2.10;;;;;;;23.28;42.95;101128.31;5038448;28;20033;-61
2023/07/19 01:45:01;;;;;;;5.18;2.88;;;;;;;23.26;42.53;101117.56;5054615;28;20037;-61
2023/07/19 01:47:27;;;;;;;6.18;2.00;;;;;;;23.23;42.60;101119.88;5055240;28;20037;-60
2023/07/19 01:49:53;;;;;;;7.93;3.70;;;;;;;23.23;42.66;101119.88;5053767;28;20416;-62
2023/07/19 01:52:18;;;;;;;5.93;1.98;;;;;;;23.22;43.51;101126.38;5053466;28;20119;-61
2023/07/19 01:54:44;;;;;;;6.07;2.13;;;;;;;23.17;42.76;101121.53;5053489;28;20029;-61
2023/07/19 01:57:10;;;;;;;6.82;1.98;;;;;;;23.15;42.85;101120.88;5053216;28;20028;-62
2023/07/19 01:59:35;;;;;;;4.97;2.22;;;;;;;23.13;42.74;101117.50;5053469;28;20032;-61
2023/07/19 02:02:01;;;;;;;3.88;1.90;;;;;;;23.12;43.19;101124.00;5036561;28;20566;-62
2023/07/19 02:04:26;;;;;;;6.22;2.13;;;;;;;23.11;42.71;101116.88;5054720;28;20060;-62
2023/07/19 02:06:52;;;;;;;3.50;2.10;;;;;;;23.08;43.35;101103.63;5036309;28;20025;-61
2023/07/19 02:09:18;;;;;;;5.80;1.98;;;;;;;23.07;43.46;101104.66;5053503;28;20416;-61
2023/07/19 02:11:44;;;;;;;3.75;1.63;;;;;;;23.07;43.49;101121.06;5037545;28;20519;-61
2023/07/19 02:14:09;;;;;;;3.72;2.00;;;;;;;23.09;43.74;101118.94;5054533;28;20044;-61
2023/07/19 02:16:35;;;;;;;2.63;1.70;;;;;;;23.09;43.65;101110.75;5055093;28;20134;-61
2023/07/19 02:19:03;;;;;;;3.67;1.90;;;;;;;23.09;43.80;101102.56;5055307;28;20040;-61
2023/07/19 02:21:28;;;;;;;2.58;1.73;;;;;;;23.13;44.17;101098.38;5055134;28;20091;-62
2023/07/19 02:23:54;;;;;;;3.67;1.75;;;;;;;23.14;43.56;101097.34;5054412;28;20041;-61
2023/07/19 02:26:20;;;;;;;9.15;2.58;;;;;;;23.16;43.34;101101.56;5037838;28;20037;-61
2023/07/19 02:28:46;;;;;;;4.82;1.98;;;;;;;23.18;43.75;101099.44;5053701;28;20484;-62
2023/07/19 02:31:11;;;;;;;6.03;2.42;;;;;;;23.18;43.73;101098.59;5036253;28;20033;-62
2023/07/19 02:33:37;;;;;;;3.97;2.03;;;;;;;23.19;44.01;101090.22;5036224;28;20403;-62
2023/07/19 02:36:02;;;;;;;4.40;2.13;;;;;;;23.22;43.50;101102.63;5052634;28;20520;-61
2023/07/19 02:38:28;;;;;;;3.58;2.20;;;;;;;23.22;43.59;101094.44;5054334;28;20033;-61
2023/07/19 02:41:00;;;;;;;3.42;1.50;;;;;;;23.22;43.82;101099.03;5054059;28;20036;-61
2023/07/19 02:43:27;;;;;;;5.63;2.20;;;;;;;23.20;44.46;101088.28;5052783;28;20037;-61
2023/07/19 02:45:55;;;;;;;5.35;2.00;;;;;;;23.18;44.01;101084.94;5052685;28;20033;-61
2023/07/19 02:48:23;;;;;;;4.45;1.88;;;;;;;23.17;44.28;101086.00;5036261;28;20044;-62
2023/07/19 02:50:49;;;;;;;6.07;2.30;;;;;;;23.16;44.48;101097.97;5052501;28;20037;-62
2023/07/19 02:53:15;;;;;;;7.22;2.00;;;;;;;23.14;43.53;101080.94;5036098;28;20042;-61
2023/07/19 02:55:44;;;;;;;4.35;2.05;;;;;;;23.13;43.79;101084.72;5019307;28;20033;-61
2023/07/19 02:58:12;;;;;;;3.33;1.90;;;;;;;23.09;44.54;101075.22;5053711;28;20063;-60
2023/07/19 03:00:42;;;;;;;3.25;2.30;;;;;;;23.09;44.81;101081.53;5053649;28;20033;-60
2023/07/19 03:03:08;;;;;;;7.28;2.20;;;;;;;23.08;43.70;101073.56;5035636;28;20504;-61
2023/07/19 03:05:34;;;;;;;4.82;1.98;;;;;;;23.06;43.79;101092.06;5052303;28;20035;-62
2023/07/19 03:08:01;;;;;;;2.88;1.85;;;;;;;23.03;44.38;101076.88;5035800;28;20025;-61
2023/07/19 03:10:27;;;;;;;2.25;1.60;;;;;;;23.03;44.76;101081.53;5052366;28;20033;-61
2023/07/19 03:12:52;;;;;;;5.78;2.13;;;;;;;23.01;44.80;101084.44;5053409;28;20040;-62
2023/07/19 03:15:18;;;;;;;3.80;2.05;;;;;;;23.00;44.24;101092.88;5052062;28;20111;-61
2023/07/19 03:17:43;;;;;;;4.32;1.92;;;;;;;22.96;44.92;101092.41;5051215;28;20120;-61
2023/07/19 03:20:10;;;;;;;2.35;1.67;;;;;;;22.94;44.78;101090.94;5052922;28;20059;-61
2023/07/19 03:22:35;;;;;;;2.92;2.15;;;;;;;22.91;44.90;101092.19;5053220;28;20119;-61
2023/07/19 03:25:00;;;;;;;4.65;2.05;;;;;;;22.86;44.25;101089.22;5035101;28;20527;-60
2023/07/19 03:27:27;;;;;;;8.85;1.83;;;;;;;22.84;45.02;101098.66;5053068;28;20130;-61
2023/07/19 03:29:52;;;;;;;4.55;2.22;;;;;;;22.80;44.75;101102.84;5051843;28;20458;-61
2023/07/19 03:32:17;;;;;;;3.03;1.92;;;;;;;22.77;45.05;101106.81;5035316;28;20040;-62
2023/07/19 03:34:43;;;;;;;5.53;2.00;;;;;;;22.77;45.15;101103.25;5052918;28;20033;-62
2023/07/19 03:37:08;;;;;;;8.00;2.03;;;;;;;22.75;44.77;101099.88;5034991;28;20045;-60
2023/07/19 03:39:33;;;;;;;8.77;2.35;;;;;;;22.72;44.75;101089.34;5034913;28;20132;-61
2023/07/19 03:41:59;;;;;;;6.80;1.73;;;;;;;22.70;44.18;101096.91;5035254;28;20094;-61
2023/07/19 03:44:25;;;;;;;8.15;2.60;;;;;;;22.68;45.27;101099.00;5035204;28;20504;-61
2023/07/19 03:46:50;;;;;;;3.85;1.95;;;;;;;22.66;44.51;101098.34;5052843;28;20061;-61
2023/07/19 03:49:15;;;;;;;6.05;2.00;;;;;;;22.61;44.44;101097.03;5053098;28;20044;-61
2023/07/19 03:51:42;;;;;;;4.30;2.13;;;;;;;22.59;44.37;101096.38;5052286;28;20043;-61
2023/07/19 03:54:08;;;;;;;4.18;2.20;;;;;;;22.58;45.48;101100.16;5052960;28;20067;-60
2023/07/19 03:56:33;;;;;;;5.60;2.03;;;;;;;22.57;44.48;101098.50;5051804;28;20057;-62
2023/07/19 03:58:59;;;;;;;5.97;1.58;;;;;;;22.58;44.83;101108.34;5051660;28;20132;-61
2023/07/19 04:01:24;;;;;;;3.17;1.65;;;;;;;22.57;44.88;101103.09;5052736;28;20053;-61
2023/07/19 04:03:49;;;;;;;6.40;2.63;;;;;;;22.57;45.20;101109.41;5018422;28;20041;-61
2023/07/19 04:06:15;;;;;;;9.35;2.55;;;;;;;22.59;45.01;101106.47;5051380;28;20124;-64
2023/07/19 04:08:40;;;;;;;8.20;2.30;;;;;;;22.60;45.50;101114.47;5050335;28;20033;-62
2023/07/19 04:11:06;;;;;;;4.82;2.17;;;;;;;22.64;44.62;101111.38;5051443;28;20036;-61
2023/07/19 04:13:31;;;;;;;4.68;2.55;;;;;;;22.68;45.20;101112.66;5052827;28;20033;-61
2023/07/19 04:15:57;;;;;;;5.32;2.75;;;;;;;22.73;45.56;101121.06;5051903;28;20122;-61
2023/07/19 04:18:22;;;;;;;9.65;2.25;;;;;;;22.77;45.30;101114.19;5034788;28;20044;-61
2023/07/19 04:20:56;;;;;;;4.95;2.17;;;;;;;22.81;44.98;101118.22;5051136;28;20025;-61
2023/07/19 04:23:22;;;;;;;2.83;1.98;;;;;;;22.86;45.61;101118.44;5051239;28;20112;-61
2023/07/19 04:25:49;;;;;;;7.30;2.45;;;;;;;22.91;45.50;101115.94;5052016;28;20120;-62
2023/07/19 04:28:14;;;;;;;5.88;3.15;;;;;;;22.95;44.76;101115.31;5035901;28;20067;-61
2023/07/19 04:30:40;;;;;;;6.80;3.30;;;;;;;23.03;45.23;101114.31;5055910;28;20049;-62
2023/07/19 04:33:06;;;;;;;6.90;3.03;;;;;;;23.06;45.34;101120.19;5055140;28;20029;-61
2023/07/19 04:35:32;;;;;;;7.43;2.72;;;;;;;23.15;46.01;101123.59;5055070;28;20037;-61
2023/07/19 04:37:57;;;;;;;4.47;2.47;;;;;;;23.22;45.79;101120.91;5056744;28;20028;-61
2023/07/19 04:40:23;;;;;;;5.25;2.80;;;;;;;23.28;45.01;101122.84;5056930;28;20112;-61
2023/07/19 04:42:49;;;;;;;5.95;2.65;;;;;;;23.35;45.08;101121.81;5062558;28;20029;-62
2023/07/19 04:45:14;;;;;;;4.32;2.50;;;;;;;23.42;45.12;101119.94;5047989;28;20104;-60
2023/07/19 04:47:40;;;;;;;5.85;2.70;;;;;;;23.45;45.52;101119.53;5058775;28;20063;-62
2023/07/19 04:50:08;;;;;;;4.30;2.40;;;;;;;23.53;44.77;101118.53;5060551;28;20029;-62
2023/07/19 04:52:34;;;;;;;4.65;2.92;;;;;;;23.60;45.80;101117.50;5062425;28;20108;-60
2023/07/19 04:55:03;;;;;;;7.97;3.03;;;;;;;23.64;45.00;101124.25;5041396;28;20049;-61
2023/07/19 04:57:29;;;;;;;4.10;2.83;;;;;;;23.70;45.37;101111.63;5055294;28;20479;-61
2023/07/19 04:59:54;;;;;;;4.53;2.60;;;;;;;23.76;45.68;101117.09;5053392;28;20051;-62
2023/07/19 05:02:19;;;;;;;7.63;2.45;;;;;;;23.81;44.94;101112.91;5050249;28;20465;-62
2023/07/19 05:04:45;;;;;;;5.90;2.88;;;;;;;23.88;45.03;101119.22;5054599;28;20017;-61
2023/07/19 05:07:10;;;;;;;5.28;2.78;;;;;;;23.98;44.56;101127.88;5055694;28;20099;-61
2023/07/19 05:09:36;;;;;;;7.75;2.63;;;;;;;24.02;44.85;101129.13;5038238;28;20033;-62
2023/07/19 05:12:02;;;;;;;10.48;2.60;;;;;;;24.09;44.56;101127.25;5054301;28;20498;-61
2023/07/19 05:14:27;;;;;;;11.63;3.22;;;;;;;24.17;44.38;101135.28;5044056;28;20043;-61
2023/07/19 05:16:53;;;;;;;17.40;3.40;;;;;;;24.21;45.35;101131.91;5037595;28;20108;-61
2023/07/19 05:19:18;;;;;;;6.72;3.08;;;;;;;24.22;44.61;101132.75;5034361;28;20528;-61
2023/07/19 05:21:44;;;;;;;13.13;4.07;;;;;;;24.31;44.42;101131.50;5033547;28;20033;-61
2023/07/19 05:24:09;;;;;;;9.80;3.38;;;;;;;24.35;44.67;101130.00;5036204;28;20029;-61
2023/07/19 05:26:34;;;;;;;6.57;3.30;;;;;;;24.43;45.22;101129.78;5037085;28;20044;-61
2023/07/19 05:29:00;;;;;;;7.60;3.80;;;;;;;24.55;44.65;101127.25;5055298;28;20503;-61
2023/07/19 05:31:25;;;;;;;4.85;2.85;;;;;;;24.61;44.99;101132.72;5054041;28;20029;-62
2023/07/19 05:33:50;;;;;;;7.30;3.58;;;;;;;24.64;44.11;101126.81;5037391;28;20029;-62
2023/07/19 05:36:16;;;;;;;6.95;3.50;;;;;;;24.68;44.00;101127.25;5053505;28;20175;-64
2023/07/19 05:38:41;;;;;;;6.60;3.58;;;;;;;24.74;44.45;101121.72;5053474;28;20131;-63
2023/07/19 05:41:07;;;;;;;7.35;4.13;;;;;;;24.80;44.02;101128.28;5052765;28;20033;-62
2023/07/19 05:43:33;;;;;;;9.00;4.32;;;;;;;24.88;44.18;101128.88;5036642;28;20037;-62
2023/07/19 05:46:08;;;;;;;8.15;3.38;;;;;;;24.92;44.14;101131.19;5047297;28;20120;-62
2023/07/19 05:48:35;;;;;;;8.75;3.70;;;;;;;24.94;44.82;101131.81;5033734;28;20026;-62
2023/07/19 05:51:02;;;;;;;5.57;3.22;;;;;;;24.96;45.01;101129.72;5035012;28;20103;-61
2023/07/19 05:53:27;;;;;;;10.23;3.65;;;;;;;24.96;44.55;101129.72;5017014;28;20083;-63
2023/07/19 05:55:52;;;;;;;8.38;3.75;;;;;;;24.99;44.43;101135.59;5034592;28;20041;-61
2023/07/19 05:58:21;;;;;;;9.07;2.75;;;;;;;25.05;44.35;101125.66;5034861;28;20527;-62
2023/07/19 06:00:49;;;;;;;10.75;3.05;;;;;;;25.11;44.37;101131.13;5033464;28;20040;-62
2023/07/19 06:03:16;;;;;;;7.90;2.58;;;;;;;25.20;44.42;101135.31;5034736;28;20497;-61
2023/07/19 06:05:43;;;;;;;8.48;3.10;;;;;;;25.23;44.10;101125.81;5035005;28;20485;-64
2023/07/19 06:08:09;;;;;;;8.00;3.00;;;;;;;25.28;44.29;101129.59;5033733;28;20025;-62
2023/07/19 06:10:34;;;;;;;9.10;3.65;;;;;;;25.26;44.43;101125.38;5033049;28;20505;-62
2023/07/19 06:12:59;;;;;;;8.32;3.55;;;;;;;25.24;44.04;101119.25;5034553;28;20025;-61
2023/07/19 06:15:26;;;;;;;10.40;3.42;;;;;;;25.20;44.25;101120.75;5034414;28;20057;-61
2023/07/19 06:17:51;;;;;;;8.02;3.35;;;;;;;25.18;44.20;101131.13;5033270;28;20547;-62
2023/07/19 06:20:16;;;;;;;10.25;3.28;;;;;;;25.18;44.21;101133.84;5034621;28;20029;-62
2023/07/19 06:22:42;;;;;;;6.38;3.17;;;;;;;25.23;44.27;101126.66;5034679;28;20035;-62
2023/07/19 06:25:07;;;;;;;7.18;3.20;;;;;;;25.34;43.95;101120.50;5034482;28;20033;-62
2023/07/19 06:27:33;;;;;;;16.08;3.85;;;;;;;25.41;44.01;101128.66;5032631;28;20033;-63
2023/07/19 06:29:58;;;;;;;8.00;4.45;;;;;;;25.54;44.19;101136.88;5034424;28;20428;-61
2023/07/19 06:32:24;;;;;;;6.68;3.50;;;;;;;25.56;44.40;101140.25;5033073;28;20102;-62
2023/07/19 06:34:49;;;;;;;7.95;3.40;;;;;;;25.57;43.91;101138.34;5034362;28;20040;-62
2023/07/19 06:37:15;;;;;;;8.02;3.50;;;;;;;25.56;44.13;101142.13;5033894;28;20085;-61
2023/07/19 06:39:40;;;;;;;14.73;3.55;;;;;;;25.57;44.44;101136.44;5032771;28;20124;-62
2023/07/19 06:42:06;;;;;;;9.20;3.70;;;;;;;25.57;44.17;101132.84;5016096;28;20030;-62
2023/07/19 06:44:31;;;;;;;15.30;4.50;;;;;;;25.56;44.55;101136.66;5032549;28;20562;-61
2023/07/19 06:46:59;;;;;;;13.55;4.03;;;;;;;25.58;44.62;101140.84;5033768;28;20440;-62
2023/07/19 06:49:24;;;;;;;12.27;4.22;;;;;;;25.61;44.67;101139.56;5032631;28;20412;-63
2023/07/19 06:51:49;;;;;;;9.52;3.30;;;;;;;25.64;44.50;101139.97;5015836;28;20033;-63
2023/07/19 06:54:15;;;;;;;8.00;3.53;;;;;;;25.70;44.00;101147.34;5032409;28;20049;-63
2023/07/19 06:56:40;;;;;;;11.80;3.78;;;;;;;25.72;44.20;101153.44;5033354;28;20121;-63
2023/07/19 06:59:05;;;;;;;5.47;2.92;;;;;;;25.71;44.25;101159.97;5032264;28;20037;-63
2023/07/19 07:01:31;;;;;;;8.65;3.17;;;;;;;25.68;44.58;101146.72;5033637;28;20448;-62
2023/07/19 07:03:56;;;;;;;6.63;3.83;;;;;;;25.64;44.34;101136.38;5033672;28;20121;-62
2023/07/19 07:06:22;;;;;;;13.68;3.67;;;;;;;25.54;43.79;101145.13;5015743;28;20428;-63
2023/07/19 07:08:47;;;;;;;6.07;3.38;;;;;;;25.52;44.83;101141.72;5015750;28;20116;-63
2023/07/19 07:11:12;;;;;;;6.85;3.33;;;;;;;25.68;44.38;101138.50;5033353;28;20029;-61
2023/07/19 07:13:38;;;;;;;7.55;3.05;;;;;;;25.93;44.22;101144.03;5033293;28;20033;-63
2023/07/19 07:16:04;;;;;;;7.18;3.10;;;;;;;26.11;44.12;101135.84;5053362;28;20025;-62
2023/07/19 07:18:29;;;;;;;7.57;2.90;;;;;;;26.38;44.05;101142.00;5053159;28;20052;-62
2023/07/19 07:20:55;;;;;;;7.38;2.80;;;;;;;26.39;44.51;101143.66;5052008;28;20409;-61
2023/07/19 07:23:21;;;;;;;6.22;3.28;;;;;;;26.38;44.28;101150.25;5052091;28;20408;-62
2023/07/19 07:25:51;;;;;;;5.07;2.85;;;;;;;26.36;44.53;101149.63;5053273;28;20048;-62
2023/07/19 07:28:16;;;;;;;4.47;3.45;;;;;;;26.35;44.58;101146.06;5051794;28;20033;-62
2023/07/19 07:30:42;;;;;;;7.70;2.97;;;;;;;26.35;44.69;101153.44;5051988;28;20039;-62
2023/07/19 07:33:08;;;;;;;6.55;2.70;;;;;;;26.32;44.23;101143.75;5052999;28;20033;-63
2023/07/19 07:35:33;;;;;;;4.90;2.88;;;;;;;26.31;44.61;101149.44;5052827;28;20047;-61
2023/07/19 07:37:58;;;;;;;10.63;2.95;;;;;;;26.30;44.87;101151.34;5051638;28;20128;-61
2023/07/19 07:40:24;;;;;;;4.75;2.72;;;;;;;26.33;44.14;101150.06;5051891;28;20037;-62
2023/07/19 07:42:49;;;;;;;8.10;2.80;;;;;;;26.45;44.18;101151.03;5051737;28;20470;-61
2023/07/19 07:45:14;;;;;;;10.45;2.90;;;;;;;26.56;44.52;101156.63;5051847;28;20025;-62
2023/07/19 07:47:40;;;;;;;5.10;2.92;;;;;;;26.59;44.55;101144.34;5051626;28;20037;-62
2023/07/19 07:50:08;;;;;;;6.35;2.72;;;;;;;26.61;44.12;101144.94;5035061;28;20032;-62
2023/07/19 07:52:37;;;;;;;6.47;3.40;;;;;;;26.63;44.55;101140.09;5051615;28;20504;-61
2023/07/19 07:55:05;;;;;;;5.78;3.22;;;;;;;26.62;44.71;101141.13;5052003;28;20033;-62
2023/07/19 07:57:33;;;;;;;8.38;3.10;;;;;;;26.59;44.46;101133.34;5052847;28;20041;-62
2023/07/19 08:00:02;;;;;;;7.65;3.13;;;;;;;26.67;44.06;101152.28;5052007;28;20519;-61
2023/07/19 08:02:27;;;;;;;6.30;2.70;;;;;;;26.62;44.77;101160.38;5051648;28;20064;-61
2023/07/19 08:04:52;;;;;;;7.78;3.10;;;;;;;26.58;44.28;101153.63;5054367;28;20025;-63
2023/07/19 08:07:18;;;;;;;10.55;2.92;;;;;;;26.50;44.89;101151.19;5055698;28;20519;-62
2023/07/19 08:09:43;;;;;;;13.73;2.92;;;;;;;26.32;44.81;101153.91;5056840;28;20029;-62
2023/07/19 08:12:09;;;;;;;8.02;2.72;;;;;;;26.21;45.13;101147.22;5055578;28;20048;-63
2023/07/19 08:14:35;;;;;;;8.30;3.92;;;;;;;26.24;45.45;101149.53;5055328;28;20443;-62
2023/07/19 08:17:01;;;;;;;5.60;3.30;;;;;;;26.35;45.39;101142.47;5038714;28;20029;-63
2023/07/19 08:19:26;;;;;;;5.88;2.50;;;;;;;26.47;44.56;101140.63;5056784;28;20035;-61
2023/07/19 08:21:52;;;;;;;13.00;2.83;;;;;;;26.56;44.60;101142.03;5055387;28;20036;-62
2023/07/19 08:24:17;;;;;;;5.28;2.30;;;;;;;26.71;45.11;101125.19;5055320;28;20028;-62
2023/07/19 08:26:43;;;;;;;10.00;3.22;;;;;;;26.88;45.08;101132.66;5056477;28;20079;-61
2023/07/19 08:29:10;;;;;;;6.40;2.50;;;;;;;27.09;44.27;101140.44;5055211;28;20044;-61
2023/07/19 08:31:36;;;;;;;4.75;2.50;;;;;;;27.27;44.71;101136.00;5038528;28;20585;-62
2023/07/19 08:34:01;;;;;;;5.80;2.10;;;;;;;27.42;43.90;101136.44;5055258;28;20059;-61
2023/07/19 08:36:27;;;;;;;7.53;2.33;;;;;;;27.50;44.15;101136.16;5056071;28;20404;-62
2023/07/19 08:38:52;;;;;;;4.18;2.58;;;;;;;27.55;43.50;101128.88;5054876;28;20064;-62
2023/07/19 08:41:21;;;;;;;5.43;2.20;;;;;;;27.70;43.17;101128.44;5038226;28;20111;-61
2023/07/19 08:43:47;;;;;;;8.35;2.42;;;;;;;27.88;42.87;101131.13;5055051;28;20029;-62
2023/07/19 08:46:14;;;;;;;5.13;2.42;;;;;;;27.99;43.12;101129.47;5054813;28;20083;-62
2023/07/19 08:48:42;;;;;;;5.43;1.95;;;;;;;28.10;43.15;101121.28;5038188;28;20040;-62
2023/07/19 08:51:08;;;;;;;6.38;1.92;;;;;;;28.20;42.74;101121.53;5054929;28;20086;-62
2023/07/19 08:53:34;;;;;;;6.53;2.00;;;;;;;28.47;43.08;101127.44;5054754;28;20033;-61
2023/07/19 08:55:59;;;;;;;5.32;2.17;;;;;;;28.72;42.41;101125.28;5054618;28;20120;-63
2023/07/19 08:58:24;;;;;;;4.20;1.60;;;;;;;29.05;41.52;101124.63;5054475;28;20037;-63
2023/07/19 09:00:50;;;;;;;4.63;2.25;;;;;;;29.29;41.34;101126.28;5037981;28;20048;-63
2023/07/19 09:03:16;;;;;;;4.40;1.80;;;;;;;29.67;40.81;101122.06;5054704;28;20117;-61
2023/07/19 09:05:44;;;;;;;6.00;1.95;;;;;;;29.72;41.25;101130.44;5054500;28;20027;-62
2023/07/19 09:08:09;;;;;;;3.97;2.00;;;;;;;29.80;41.22;101133.66;5054416;28;20061;-62
2023/07/19 09:10:36;;;;;;;4.22;2.65;;;;;;;29.93;40.42;101119.53;5055634;28;20064;-62
2023/07/19 09:13:05;;;;;;;4.50;1.60;;;;;;;30.21;39.94;101124.16;5055591;28;20111;-62
2023/07/19 09:15:33;;;;;;;6.47;2.10;;;;;;;30.17;40.54;101117.47;5054710;28;20051;-62
2023/07/19 09:18:00;;;;;;;7.57;1.77;;;;;;;30.25;40.18;101117.03;5053741;28;20061;-61
2023/07/19 09:20:27;;;;;;;4.32;1.80;;;;;;;30.30;39.71;101114.34;5055632;28;20025;-62
2023/07/19 09:22:52;;;;;;;4.70;1.77;;;;;;;30.39;39.42;101118.41;5037996;28;20036;-62
2023/07/19 09:25:18;;;;;;;5.00;1.90;;;;;;;30.95;38.75;101119.25;5056058;28;20021;-62
2023/07/19 09:27:43;;;;;;;3.05;1.42;;;;;;;31.16;38.76;101112.88;5053755;28;20500;-62
2023/07/19 09:30:12;;;;;;;4.50;1.35;;;;;;;31.19;38.21;101108.75;5054038;28;20064;-64
2023/07/19 09:32:39;;;;;;;4.28;1.10;;;;;;;31.48;38.12;101105.53;5054079;28;20161;-62
2023/07/19 09:35:06;;;;;;;5.80;1.67;;;;;;;32.02;37.51;101108.34;5055127;28;20077;-62
2023/07/19 09:37:32;;;;;;;3.40;1.20;;;;;;;32.55;36.61;101102.66;5053690;28;20072;-62
2023/07/19 09:39:59;;;;;;;3.40;1.10;;;;;;;32.71;36.72;101101.66;5053691;28;20045;-62
2023/07/19 09:42:24;;;;;;;3.30;1.35;;;;;;;32.77;36.31;101100.59;5011132;28;20040;-63
2023/07/19 09:44:50;;;;;;;2.80;1.23;;;;;;;33.00;35.71;101104.03;5053771;28;20025;-62
2023/07/19 09:47:17;;;;;;;5.43;1.27;;;;;;;33.00;36.37;101099.28;5037440;28;20021;-62
2023/07/19 09:49:43;;;;;;;5.35;1.20;;;;;;;32.97;36.27;101099.81;5055061;28;20024;-63
2023/07/19 09:52:12;;;;;;;4.60;1.38;;;;;;;32.86;36.17;101097.28;5036967;28;20036;-63
2023/07/19 09:54:38;;;;;;;2.65;1.05;;;;;;;32.87;35.27;101099.78;5053407;28;20021;-63
2023/07/19 09:57:05;;;;;;;5.85;1.15;;;;;;;33.02;36.08;101099.03;5053454;28;20495;-63
2023/07/19 09:59:34;;;;;;;3.70;1.30;;;;;;;33.12;35.45;101099.09;5054999;28;20033;-62
2023/07/19 10:02:01;;;;;;;5.05;1.20;;;;;;;33.75;34.82;101100.72;5053575;28;20029;-63
2023/07/19 10:04:37;;;;;;;3.28;1.30;;;;;;;33.91;34.21;101097.66;5053585;28;20028;-63
2023/07/19 10:07:07;;;;;;;4.95;1.83;;;;;;;34.12;33.47;101103.25;5053592;28;20036;-63
2023/07/19 10:09:42;;;;;;;5.07;1.10;;;;;;;34.46;33.46;101095.97;5054555;28;20039;-63
2023/07/19 10:12:15;;;;;;;4.78;1.60;;;;;;;34.59;33.19;101105.75;5054555;28;20064;-63
2023/07/19 10:14:40;;;;;;;4.72;2.08;;;;;;;35.48;31.56;101102.91;5054483;28;20025;-63
2023/07/19 10:17:06;;;;;;;2.75;0.88;;;;;;;35.69;31.12;101092.47;5053003;28;20103;-63
2023/07/19 10:19:32;;;;;;;2.88;0.98;;;;;;;35.44;31.45;101093.44;5036456;28;20033;-63
2023/07/19 10:22:08;;;;;;;6.20;0.98;;;;;;;35.23;31.24;101095.53;5053328;28;20409;-63
2023/07/19 10:24:37;;;;;;;1.48;0.68;;;;;;;35.09;31.64;101089.72;5054067;28;20025;-63
2023/07/19 10:27:07;;;;;;;5.97;2.45;;;;;;;35.00;31.57;101090.56;5052541;28;20033;-63
2023/07/19 10:29:45;;;;;;;2.88;0.82;;;;;;;34.80;30.54;101097.06;5052825;28;20036;-63
2023/07/19 10:32:11;;;;;;;1.23;1.02;;;;;;;34.69;31.23;101095.41;5052820;28;20509;-63
2023/07/19 10:34:37;;;;;;;3.90;1.20;;;;;;;35.01;31.23;101093.06;5052761;28;20090;-63
2023/07/19 10:37:03;;;;;;;2.60;0.95;;;;;;;34.87;31.29;101092.00;5036115;28;20033;-63
2023/07/19 10:39:30;;;;;;;4.47;1.10;;;;;;;35.16;30.45;101088.56;5052808;28;20496;-62
2023/07/19 10:41:55;;;;;;;4.25;1.73;;;;;;;35.24;31.18;101093.56;5052805;28;20067;-62
2023/07/19 10:44:22;;;;;;;2.50;0.75;;;;;;;35.27;30.52;101084.63;5052568;28;20435;-62
2023/07/19 10:46:48;;;;;;;2.20;0.88;;;;;;;35.21;30.87;101092.19;5052561;28;20504;-62
2023/07/19 10:49:13;;;;;;;1.60;0.95;;;;;;;35.17;30.00;101098.63;5036045;28;20060;-62
2023/07/19 10:51:39;;;;;;;2.95;0.80;;;;;;;35.07;30.29;101100.31;5052727;28;20037;-63
2023/07/19 10:54:06;;;;;;;2.58;1.00;;;;;;;34.99;30.20;101094.47;5052501;28;20044;-62
2023/07/19 10:56:32;;;;;;;2.45;1.27;;;;;;;35.79;28.98;101095.22;5035559;28;20037;-63
2023/07/19 10:59:01;;;;;;;2.58;0.88;;;;;;;35.86;28.65;101092.91;5053648;28;20043;-63
2023/07/19 11:01:29;;;;;;;2.85;1.42;;;;;;;36.01;28.42;101093.66;5052434;28;20029;-63
2023/07/19 11:03:55;;;;;;;1.40;1.25;;;;;;;36.48;28.15;101094.91;5052192;28;20040;-63
2023/07/19 11:06:20;;;;;;;2.25;1.17;;;;;;;37.02;27.30;101095.44;5035488;28;20029;-63
2023/07/19 11:08:46;;;;;;;1.83;1.25;;;;;;;37.30;26.44;101102.91;5053470;28;20064;-62
2023/07/19 11:11:13;;;;;;;3.85;1.10;;;;;;;37.60;26.67;101086.88;5052210;28;20033;-63
2023/07/19 11:13:38;;;;;;;2.03;1.05;;;;;;;37.58;26.51;101087.16;5051983;28;20037;-63
2023/07/19 11:16:04;;;;;;;2.00;0.90;;;;;;;37.52;26.26;101085.59;5053187;28;20041;-62
2023/07/19 11:18:40;;;;;;;1.60;0.75;;;;;;;37.09;26.90;101087.56;5034305;28;20037;-62